Portada
METAR-TAF:

METAR-TAF

Aeropuertos :

Lleida-Alguaire

Lérida, España

latitud: 41-43-40N, longitud: 000-32-09E, altitud: 350 m

Observación

El informe se hizo hace 20 minutos, a las 23:30 UTC
Viento 15 kt del este-noreste
Temperatura 9°C
Humedad 93%
Presión 1014 hPa
Visibilidad 10 km o más
Nubes dispersas a una altura de 3800 ft
Cielo cubierto a una altura de 6000 ft

METAR: LEDA 312330Z AUTO 06015KT 9999 SCT038 OVC060 09/08 Q1014

Hora: 01:50 (23:50 UTC)


TAF: falta

Observaciones y pronósticos meteorológicos de más de 4000 aeropuertos (mensajes METAR y TAF).

Los puntos amarillos y rojos representan las estaciones disponibles.

Ponga el ratón en el punto deseado para ver el nombre de la estación.

Haga clic para ver las observaciones y los pronósticos meteorológicos.

Para cambiar el mapa : haga clic en los botones verdes con una cruz de color negro para hacer un zoom, en el botón verde con un guión para alejar o en las flechas verdes para mapas adyacentes.


METAR-TAF: